createdAt,value
2017-07-05T00:01:41.597Z,14.10
2017-07-05T00:04:10.048Z,14.00
2017-07-05T00:06:38.530Z,14.10
2017-07-05T00:09:06.967Z,14.10
2017-07-05T00:11:35.401Z,14.10
2017-07-05T00:14:03.903Z,14.10
2017-07-05T00:16:32.328Z,14.10
2017-07-05T00:19:00.778Z,14.10
2017-07-05T00:21:29.255Z,14.10
2017-07-05T00:23:57.683Z,14.10
2017-07-05T00:26:26.105Z,14.10
2017-07-05T00:28:54.582Z,14.10
2017-07-05T00:31:23.014Z,14.10
2017-07-05T00:33:51.431Z,14.10
2017-07-05T00:36:19.872Z,14.10
2017-07-05T00:38:48.304Z,14.10
2017-07-05T00:41:16.771Z,14.10
2017-07-05T00:43:45.241Z,14.10
2017-07-05T00:46:13.687Z,14.20
2017-07-05T00:48:42.116Z,14.20
2017-07-05T00:51:10.603Z,14.20
2017-07-05T00:53:39.015Z,14.30
2017-07-05T00:56:07.598Z,14.30
2017-07-05T00:58:36.051Z,14.30
2017-07-05T01:01:04.479Z,14.20
2017-07-05T01:03:32.916Z,14.10
2017-07-05T01:06:01.429Z,14.10
2017-07-05T01:08:29.864Z,14.10
2017-07-05T01:10:58.297Z,13.90
2017-07-05T01:13:26.766Z,13.90
2017-07-05T01:15:55.204Z,13.80
2017-07-05T01:18:23.639Z,13.80
2017-07-05T01:20:52.149Z,13.70
2017-07-05T01:23:20.590Z,13.80
2017-07-05T01:25:49.012Z,13.70
2017-07-05T01:28:17.450Z,13.60
2017-07-05T01:30:45.919Z,13.50
2017-07-05T01:33:14.344Z,13.50
2017-07-05T01:35:42.806Z,13.40
2017-07-05T01:38:11.289Z,13.30
2017-07-05T01:40:39.719Z,13.40
2017-07-05T01:43:08.168Z,13.30
2017-07-05T01:45:36.619Z,13.40
2017-07-05T01:48:05.051Z,13.40
2017-07-05T01:50:33.502Z,13.50
2017-07-05T01:53:01.954Z,13.50
2017-07-05T01:55:29.706Z,13.60
2017-07-05T01:57:57.562Z,13.70
2017-07-05T02:02:59.256Z,13.90
2017-07-05T02:05:27.684Z,13.90
2017-07-05T02:07:56.154Z,13.80
2017-07-05T02:10:24.658Z,13.70
2017-07-05T02:12:53.104Z,13.70
2017-07-05T02:15:21.566Z,13.70
2017-07-05T02:17:50.051Z,13.60
2017-07-05T02:20:18.529Z,13.60
2017-07-05T02:22:46.972Z,13.60
2017-07-05T02:25:15.443Z,13.60
2017-07-05T02:27:43.910Z,13.60
2017-07-05T02:30:12.363Z,13.60
2017-07-05T02:32:40.470Z,13.50
2017-07-05T02:35:08.914Z,13.40
2017-07-05T02:37:37.366Z,13.30
2017-07-05T02:40:05.831Z,13.30
2017-07-05T02:42:34.269Z,13.20
2017-07-05T02:45:02.708Z,13.10
2017-07-05T02:47:31.187Z,13.10
2017-07-05T02:49:59.626Z,13.10
2017-07-05T02:52:28.071Z,13.10
2017-07-05T02:54:56.524Z,13.10
2017-07-05T02:57:24.987Z,13.10
2017-07-05T02:59:53.452Z,13.00
2017-07-05T03:02:22.131Z,13.00
2017-07-05T03:04:50.559Z,13.00
2017-07-05T03:07:19.299Z,13.00
2017-07-05T03:09:47.782Z,13.00
2017-07-05T03:12:16.236Z,13.00
2017-07-05T03:14:44.709Z,13.00
2017-07-05T03:17:13.169Z,13.00
2017-07-05T03:19:41.639Z,13.00
2017-07-05T03:22:10.360Z,13.10
2017-07-05T03:24:38.991Z,13.00
2017-07-05T03:27:07.438Z,13.00
2017-07-05T03:29:35.891Z,13.10
2017-07-05T03:32:04.359Z,13.10
2017-07-05T03:34:32.806Z,13.20
2017-07-05T03:37:01.245Z,13.20
2017-07-05T03:39:29.686Z,13.20
2017-07-05T03:41:58.145Z,13.20
2017-07-05T03:44:26.643Z,13.10
2017-07-05T03:46:55.095Z,13.10
2017-07-05T03:49:23.522Z,13.10
2017-07-05T03:51:52.159Z,13.10
2017-07-05T03:54:20.610Z,13.20
2017-07-05T03:56:49.072Z,13.20
2017-07-05T03:59:17.526Z,13.30
2017-07-05T04:01:45.996Z,13.30
2017-07-05T04:04:14.462Z,13.40
2017-07-05T04:06:42.945Z,13.40
2017-07-05T04:09:11.049Z,13.60
2017-07-05T04:11:39.478Z,13.70
2017-07-05T04:14:07.919Z,13.80
2017-07-05T04:16:36.339Z,13.90
2017-07-05T04:19:04.808Z,14.00
2017-07-05T04:21:33.295Z,14.20
2017-07-05T04:24:01.742Z,14.40
2017-07-05T04:26:30.183Z,14.50
2017-07-05T04:28:58.616Z,14.70
2017-07-05T04:31:27.856Z,14.80
2017-07-05T04:33:56.391Z,15.00
2017-07-05T04:36:24.948Z,15.10
2017-07-05T04:38:53.408Z,15.30
2017-07-05T04:41:21.863Z,15.30
2017-07-05T04:43:50.385Z,15.50
2017-07-05T04:46:18.859Z,15.60
2017-07-05T04:48:47.419Z,15.80
2017-07-05T04:51:15.940Z,15.90
2017-07-05T04:56:18.026Z,16.10
2017-07-05T04:58:46.543Z,16.20
2017-07-05T05:01:15.090Z,16.50
2017-07-05T05:03:43.646Z,16.70
2017-07-05T05:06:12.170Z,16.70
2017-07-05T05:08:41.009Z,16.90
2017-07-05T05:11:09.578Z,17.00
2017-07-05T05:13:38.106Z,17.00
2017-07-05T05:16:14.360Z,17.00
2017-07-05T05:18:42.858Z,17.10
2017-07-05T05:21:11.426Z,17.20
2017-07-05T05:23:39.961Z,17.30
2017-07-05T05:26:08.441Z,17.40
2017-07-05T05:28:37.160Z,17.50
2017-07-05T05:31:05.682Z,17.60
2017-07-05T05:33:34.186Z,17.70
2017-07-05T05:36:02.667Z,18.00
2017-07-05T05:38:31.342Z,18.30
2017-07-05T05:40:59.858Z,18.50
2017-07-05T05:43:28.351Z,18.60
2017-07-05T05:45:56.878Z,18.80
2017-07-05T05:48:25.455Z,19.00
2017-07-05T05:50:53.937Z,19.20
2017-07-05T05:53:22.419Z,19.60
2017-07-05T05:55:51.149Z,19.70
2017-07-05T05:58:19.640Z,19.90
2017-07-05T06:00:48.218Z,20.10
2017-07-05T06:03:16.691Z,20.40
2017-07-05T06:05:45.143Z,20.70
2017-07-05T06:08:13.645Z,21.00
2017-07-05T06:10:41.966Z,21.30
2017-07-05T06:13:10.752Z,21.60
2017-07-05T06:15:39.237Z,21.90
2017-07-05T06:18:07.731Z,22.40
2017-07-05T06:20:36.209Z,22.70
2017-07-05T06:23:04.722Z,22.90
2017-07-05T06:25:33.210Z,23.60
2017-07-05T06:28:01.697Z,24.50
2017-07-05T06:30:30.233Z,24.90
2017-07-05T06:32:58.749Z,25.00
2017-07-05T06:35:27.243Z,25.20
2017-07-05T06:37:55.768Z,25.40
2017-07-05T06:40:24.249Z,26.20
2017-07-05T06:42:52.978Z,26.60
2017-07-05T06:45:21.768Z,26.80
2017-07-05T06:47:50.279Z,26.90
2017-07-05T06:50:18.780Z,27.30
2017-07-05T06:52:47.477Z,27.40
2017-07-05T06:55:15.793Z,27.80
2017-07-05T06:57:44.291Z,29.00
2017-07-05T07:00:12.848Z,28.80
2017-07-05T07:02:41.348Z,29.30
2017-07-05T07:05:09.846Z,29.50
2017-07-05T07:07:38.387Z,29.70
2017-07-05T07:10:07.205Z,30.40
2017-07-05T07:12:35.690Z,30.20
2017-07-05T07:15:04.205Z,30.70
2017-07-05T07:17:32.907Z,30.90
2017-07-05T07:20:01.233Z,31.40
2017-07-05T07:22:29.769Z,31.60
2017-07-05T07:24:58.278Z,32.20
2017-07-05T07:27:26.750Z,32.00
2017-07-05T07:29:55.305Z,33.10
2017-07-05T07:32:23.834Z,32.90
2017-07-05T07:34:52.304Z,31.60
2017-07-05T07:37:20.861Z,32.10
2017-07-05T07:39:49.328Z,32.60
2017-07-05T07:42:18.583Z,32.20
2017-07-05T07:44:47.091Z,32.10
2017-07-05T07:47:15.580Z,32.70
2017-07-05T07:49:44.050Z,31.80
2017-07-05T07:52:12.760Z,30.90
2017-07-05T07:54:41.225Z,32.20
2017-07-05T07:57:09.726Z,32.10
2017-07-05T07:59:38.300Z,32.10
2017-07-05T08:02:06.759Z,32.10
2017-07-05T08:04:35.257Z,32.10
2017-07-05T08:07:04.432Z,31.60
2017-07-05T08:09:32.875Z,32.10
2017-07-05T08:12:01.334Z,32.60
2017-07-05T08:14:29.870Z,32.80
2017-07-05T08:16:58.343Z,33.60
2017-07-05T08:19:26.816Z,34.30
2017-07-05T08:21:55.404Z,33.90
2017-07-05T08:24:23.935Z,33.60
2017-07-05T08:26:52.478Z,33.40
2017-07-05T08:29:21.006Z,33.40
2017-07-05T08:31:49.486Z,33.70
2017-07-05T08:34:18.000Z,34.50
2017-07-05T08:36:46.529Z,34.40
2017-07-05T08:39:15.080Z,34.90
2017-07-05T08:41:43.544Z,33.50
2017-07-05T08:44:12.627Z,33.40
2017-07-05T08:46:41.200Z,33.40
2017-07-05T08:49:09.697Z,34.80
2017-07-05T08:51:38.280Z,33.70
2017-07-05T08:54:06.783Z,34.00
2017-07-05T08:56:35.263Z,33.70
2017-07-05T08:59:03.819Z,34.60
2017-07-05T09:01:32.289Z,35.00
2017-07-05T09:04:00.987Z,34.90
2017-07-05T09:06:29.579Z,34.20
2017-07-05T09:08:58.057Z,34.50
2017-07-05T09:11:26.544Z,34.50
2017-07-05T09:13:55.057Z,35.30
2017-07-05T09:16:23.607Z,36.50
2017-07-05T09:18:52.072Z,36.70
2017-07-05T09:21:20.540Z,35.40
2017-07-05T09:23:49.025Z,35.00
2017-07-05T09:26:17.517Z,35.10
2017-07-05T09:28:46.018Z,34.60
2017-07-05T09:31:14.492Z,35.10
2017-07-05T09:33:43.023Z,35.10
2017-07-05T09:36:11.569Z,34.20
2017-07-05T09:38:40.093Z,34.20
2017-07-05T09:41:08.596Z,34.40
2017-07-05T09:43:37.113Z,34.60
2017-07-05T09:46:05.591Z,34.30
2017-07-05T09:48:34.093Z,33.60
2017-07-05T09:51:02.639Z,33.80
2017-07-05T09:53:31.226Z,33.60
2017-07-05T09:55:59.711Z,33.40
2017-07-05T09:58:28.248Z,34.20
2017-07-05T10:00:56.765Z,34.60
2017-07-05T10:03:25.459Z,35.60
2017-07-05T10:05:53.999Z,34.80
2017-07-05T10:08:22.491Z,35.40
2017-07-05T10:10:50.988Z,35.20
2017-07-05T10:13:20.271Z,35.60
2017-07-05T10:15:48.736Z,35.60
2017-07-05T10:18:17.236Z,35.50
2017-07-05T10:20:46.534Z,34.80
2017-07-05T10:23:15.093Z,34.70
2017-07-05T10:25:43.603Z,34.40
2017-07-05T10:28:12.132Z,34.70
2017-07-05T10:30:40.594Z,35.20
2017-07-05T10:33:09.107Z,35.30
2017-07-05T10:35:37.607Z,35.50
2017-07-05T10:38:06.168Z,35.40
2017-07-05T10:40:34.634Z,35.70
2017-07-05T10:43:03.369Z,35.60
2017-07-05T10:45:31.858Z,35.80
2017-07-05T10:48:00.708Z,35.50
2017-07-05T10:50:29.222Z,34.30
2017-07-05T10:52:57.732Z,34.00
2017-07-05T10:55:34.699Z,33.90
2017-07-05T10:58:03.223Z,34.90
2017-07-05T11:00:31.729Z,35.10
2017-07-05T11:03:00.214Z,34.60
2017-07-05T11:05:28.767Z,34.60
2017-07-05T11:07:57.282Z,34.70
2017-07-05T11:10:25.789Z,34.20
2017-07-05T11:12:54.316Z,33.60
2017-07-05T11:15:23.544Z,33.80
2017-07-05T11:17:52.055Z,33.70
2017-07-05T11:20:20.575Z,33.90
2017-07-05T11:22:49.306Z,34.30
2017-07-05T11:25:17.802Z,34.50
2017-07-05T11:27:46.324Z,34.20
2017-07-05T11:30:14.836Z,34.20
2017-07-05T11:32:43.366Z,33.30
2017-07-05T11:35:11.903Z,32.80
2017-07-05T11:37:40.376Z,33.30
2017-07-05T11:40:08.912Z,33.30
2017-07-05T11:42:37.379Z,33.10
2017-07-05T11:45:05.898Z,33.20
2017-07-05T11:47:34.496Z,32.60
2017-07-05T11:50:02.997Z,33.00
2017-07-05T11:52:31.717Z,32.60
2017-07-05T11:55:00.236Z,32.80
2017-07-05T11:57:28.773Z,33.40
2017-07-05T11:59:57.233Z,33.70
2017-07-05T12:02:26.565Z,34.20
2017-07-05T12:04:55.023Z,34.20
2017-07-05T12:07:23.551Z,33.70
2017-07-05T12:09:52.150Z,32.90
2017-07-05T12:12:20.644Z,33.00
2017-07-05T12:14:49.116Z,32.70
2017-07-05T12:17:17.624Z,32.90
2017-07-05T12:19:46.129Z,33.50
2017-07-05T12:22:14.808Z,33.60
2017-07-05T12:24:43.457Z,33.80
2017-07-05T12:27:11.983Z,33.80
2017-07-05T12:29:40.815Z,33.60
2017-07-05T12:32:09.335Z,33.90
2017-07-05T12:34:37.835Z,33.40
2017-07-05T12:37:06.315Z,33.00
2017-07-05T12:39:34.799Z,32.40
2017-07-05T12:42:03.295Z,32.50
2017-07-05T12:44:31.735Z,33.00
2017-07-05T12:47:00.248Z,32.50
2017-07-05T12:49:28.696Z,32.40
2017-07-05T12:51:57.139Z,32.00
2017-07-05T12:54:25.651Z,31.70
2017-07-05T12:56:54.088Z,31.60
2017-07-05T12:59:22.601Z,32.10
2017-07-05T13:01:51.113Z,32.10
2017-07-05T13:04:19.597Z,32.40
2017-07-05T13:06:48.060Z,32.20
2017-07-05T13:09:16.581Z,31.90
2017-07-05T13:11:45.078Z,32.40
2017-07-05T13:14:13.518Z,32.50
2017-07-05T13:16:42.072Z,32.10
2017-07-05T13:19:10.584Z,32.20
2017-07-05T13:21:39.038Z,32.40
2017-07-05T13:24:07.585Z,32.40
2017-07-05T13:26:36.080Z,31.50
2017-07-05T13:29:04.632Z,30.80
2017-07-05T13:31:33.224Z,30.50
2017-07-05T13:34:01.776Z,30.30
2017-07-05T13:36:30.269Z,30.70
2017-07-05T13:38:58.743Z,31.30
2017-07-05T13:41:27.259Z,31.80
2017-07-05T13:43:55.791Z,32.10
2017-07-05T13:46:24.292Z,32.10
2017-07-05T13:48:52.741Z,32.20
2017-07-05T13:51:21.246Z,32.30
2017-07-05T13:53:49.787Z,32.40
2017-07-05T13:56:19.044Z,31.90
2017-07-05T13:58:47.534Z,31.90
2017-07-05T14:01:16.049Z,31.70
2017-07-05T14:03:44.572Z,31.90
2017-07-05T14:06:13.015Z,31.70
2017-07-05T14:08:41.595Z,31.70
2017-07-05T14:11:10.127Z,31.90
2017-07-05T14:13:38.691Z,31.70
2017-07-05T14:16:08.146Z,31.30
2017-07-05T14:18:36.621Z,31.40
2017-07-05T14:21:05.211Z,31.70
2017-07-05T14:23:33.788Z,31.60
2017-07-05T14:26:02.360Z,31.70
2017-07-05T14:28:30.898Z,31.70
2017-07-05T14:30:59.547Z,31.50
2017-07-05T14:33:29.276Z,30.80
2017-07-05T14:35:57.833Z,30.30
2017-07-05T14:38:26.431Z,29.80
2017-07-05T14:40:55.019Z,29.40
2017-07-05T14:43:24.489Z,29.10
2017-07-05T14:45:53.079Z,29.00
2017-07-05T14:48:21.600Z,28.80
2017-07-05T14:50:49.981Z,28.70
2017-07-05T14:53:18.527Z,28.70
2017-07-05T14:55:47.070Z,28.50
2017-07-05T14:58:15.619Z,28.60
2017-07-05T15:00:44.143Z,29.00
2017-07-05T15:03:12.682Z,28.90
2017-07-05T15:05:41.264Z,28.70
2017-07-05T15:08:09.765Z,28.70
2017-07-05T15:10:38.272Z,28.60
2017-07-05T15:13:06.788Z,29.00
2017-07-05T15:15:34.956Z,29.30
2017-07-05T15:18:03.464Z,29.50
2017-07-05T15:20:31.972Z,29.20
2017-07-05T15:23:00.495Z,28.90
2017-07-05T15:25:29.018Z,28.70
2017-07-05T15:27:57.588Z,28.20
2017-07-05T15:30:26.100Z,27.90
2017-07-05T15:32:54.617Z,27.70
2017-07-05T15:35:23.125Z,27.50
2017-07-05T15:37:51.841Z,27.30
2017-07-05T15:40:20.271Z,27.20
2017-07-05T15:42:48.867Z,27.10
2017-07-05T15:45:17.327Z,27.10
2017-07-05T15:47:45.826Z,27.20
2017-07-05T15:50:14.362Z,27.20
2017-07-05T15:52:42.898Z,27.30
2017-07-05T15:55:11.363Z,27.40
2017-07-05T15:57:39.867Z,27.70
2017-07-05T16:00:09.074Z,28.40
2017-07-05T16:02:37.203Z,28.30
2017-07-05T16:05:05.684Z,28.70
2017-07-05T16:07:34.142Z,28.50
2017-07-05T16:10:02.609Z,28.60
2017-07-05T16:12:31.071Z,28.60
2017-07-05T16:14:59.491Z,28.40
2017-07-05T16:17:27.937Z,28.10
2017-07-05T16:19:56.447Z,27.90
2017-07-05T16:22:24.899Z,27.10
2017-07-05T16:24:53.395Z,26.50
2017-07-05T16:27:21.940Z,26.10
2017-07-05T16:29:50.405Z,26.10
2017-07-05T16:32:18.870Z,25.90
2017-07-05T16:34:46.655Z,25.60
2017-07-05T16:37:15.096Z,25.40
2017-07-05T16:39:43.586Z,25.60
2017-07-05T16:42:12.087Z,25.70
2017-07-05T16:44:40.584Z,25.60
2017-07-05T16:47:09.242Z,25.40
2017-07-05T16:49:37.545Z,25.10
2017-07-05T16:52:06.058Z,25.10
2017-07-05T16:54:34.826Z,25.20
2017-07-05T16:57:03.377Z,25.50
2017-07-05T16:59:31.862Z,25.50
2017-07-05T17:02:00.344Z,25.70
2017-07-05T17:04:29.070Z,25.80
2017-07-05T17:06:57.523Z,25.90
2017-07-05T17:09:26.045Z,25.90
2017-07-05T17:11:54.536Z,25.70
2017-07-05T17:14:22.966Z,25.60
2017-07-05T17:16:51.504Z,25.60
2017-07-05T17:19:19.992Z,25.50
2017-07-05T17:21:48.457Z,25.30
2017-07-05T17:24:16.917Z,25.00
2017-07-05T17:26:45.459Z,25.00
2017-07-05T17:29:13.931Z,24.90
2017-07-05T17:31:42.412Z,24.70
2017-07-05T17:34:10.871Z,24.80
2017-07-05T17:36:39.350Z,24.90
2017-07-05T17:39:08.576Z,24.90
2017-07-05T17:41:37.111Z,24.90
2017-07-05T17:44:05.538Z,25.00
2017-07-05T17:46:35.227Z,25.00
2017-07-05T17:49:08.182Z,24.90
2017-07-05T17:51:36.438Z,24.90
2017-07-05T17:54:04.884Z,24.70
2017-07-05T17:56:34.251Z,24.70
2017-07-05T17:59:02.699Z,24.60
2017-07-05T18:01:31.506Z,24.40
2017-07-05T18:03:59.948Z,24.30
2017-07-05T18:06:29.373Z,24.30
2017-07-05T18:08:57.819Z,24.10
2017-07-05T18:11:26.382Z,23.90
2017-07-05T18:13:55.859Z,23.70
2017-07-05T18:16:23.638Z,23.70
2017-07-05T18:18:52.138Z,23.40
2017-07-05T18:21:20.551Z,23.20
2017-07-05T18:23:48.974Z,23.30
2017-07-05T18:26:17.420Z,23.20
2017-07-05T18:28:45.866Z,23.10
2017-07-05T18:31:14.425Z,22.90
2017-07-05T18:33:42.879Z,22.70
2017-07-05T18:36:11.299Z,22.60
2017-07-05T18:38:39.770Z,22.30
2017-07-05T18:41:08.188Z,22.00
2017-07-05T18:43:36.631Z,21.90
2017-07-05T18:46:05.085Z,21.70
2017-07-05T18:48:33.529Z,21.70
2017-07-05T18:51:01.963Z,21.50
2017-07-05T18:53:30.482Z,21.40
2017-07-05T18:55:58.903Z,21.20
2017-07-05T18:58:27.357Z,21.10
2017-07-05T19:00:55.877Z,21.00
2017-07-05T19:03:24.307Z,21.00
2017-07-05T19:05:52.725Z,20.80
2017-07-05T19:08:21.302Z,20.60
2017-07-05T19:10:49.785Z,20.60
2017-07-05T19:13:19.183Z,20.40
2017-07-05T19:15:47.655Z,20.40
2017-07-05T19:18:16.104Z,20.20
2017-07-05T19:20:44.523Z,20.00
2017-07-05T19:23:13.343Z,19.90
2017-07-05T19:25:41.795Z,19.80
2017-07-05T19:28:10.263Z,19.70
2017-07-05T19:30:38.809Z,19.60
2017-07-05T19:33:07.423Z,19.50
2017-07-05T19:35:35.932Z,19.30
2017-07-05T19:38:04.395Z,19.30
2017-07-05T19:40:32.850Z,19.20
2017-07-05T19:43:01.301Z,19.20
2017-07-05T19:45:29.793Z,19.20
2017-07-05T19:47:58.347Z,19.10
2017-07-05T19:50:28.537Z,19.00
2017-07-05T19:52:57.074Z,19.00
2017-07-05T19:55:25.555Z,19.10
2017-07-05T19:57:54.432Z,19.10
2017-07-05T20:00:22.944Z,19.10
2017-07-05T20:02:51.437Z,19.10
2017-07-05T20:05:19.899Z,19.00
2017-07-05T20:07:48.350Z,19.00
2017-07-05T20:10:17.643Z,19.10
2017-07-05T20:12:46.871Z,19.10
2017-07-05T20:15:15.338Z,19.10
2017-07-05T20:17:43.802Z,19.10
2017-07-05T20:20:12.283Z,19.10
2017-07-05T20:22:40.746Z,19.00
2017-07-05T20:25:09.203Z,19.00
2017-07-05T20:27:37.628Z,19.10
2017-07-05T20:30:06.091Z,19.00
2017-07-05T20:32:34.568Z,19.00
2017-07-05T20:35:03.007Z,19.00
2017-07-05T20:37:31.534Z,19.00
2017-07-05T20:39:59.998Z,18.90
2017-07-05T20:42:28.466Z,18.80
2017-07-05T20:44:56.959Z,18.80
2017-07-05T20:47:25.437Z,18.80
2017-07-05T20:49:53.863Z,18.80
2017-07-05T20:52:22.455Z,18.80
2017-07-05T20:54:50.905Z,18.70
2017-07-05T20:57:19.377Z,18.70
2017-07-05T20:59:47.833Z,18.70
2017-07-05T21:02:16.252Z,18.70
2017-07-05T21:04:44.719Z,18.70
2017-07-05T21:07:12.665Z,18.60
2017-07-05T21:09:41.087Z,18.60
2017-07-05T21:12:09.511Z,18.50
2017-07-05T21:14:37.981Z,18.50
2017-07-05T21:17:06.416Z,18.50
2017-07-05T21:19:34.857Z,18.40
2017-07-05T21:22:03.309Z,18.40
2017-07-05T21:24:31.744Z,18.40
2017-07-05T21:27:00.176Z,18.30
2017-07-05T21:29:28.652Z,18.30
2017-07-05T21:31:57.095Z,18.10
2017-07-05T21:34:25.540Z,18.10
2017-07-05T21:36:54.037Z,18.10
2017-07-05T21:39:23.241Z,18.00
2017-07-05T21:41:51.688Z,17.90
2017-07-05T21:44:20.144Z,17.90
2017-07-05T21:46:48.579Z,17.80
2017-07-05T21:49:16.996Z,17.80
2017-07-05T21:51:45.527Z,17.70
2017-07-05T21:54:13.953Z,17.60
2017-07-05T21:56:42.382Z,17.50
2017-07-05T21:59:10.859Z,17.50
2017-07-05T22:01:39.508Z,17.50
2017-07-05T22:04:07.933Z,17.60
2017-07-05T22:06:36.371Z,17.60
2017-07-05T22:09:04.135Z,17.60
2017-07-05T22:11:32.587Z,17.60
2017-07-05T22:14:01.815Z,17.50
2017-07-05T22:16:30.241Z,17.50
2017-07-05T22:18:58.675Z,17.50
2017-07-05T22:21:27.134Z,17.50
2017-07-05T22:23:55.562Z,17.50
2017-07-05T22:26:24.027Z,17.50
2017-07-05T22:28:52.543Z,17.50
2017-07-05T22:31:20.993Z,17.50
2017-07-05T22:33:49.432Z,17.40
2017-07-05T22:36:17.534Z,17.30
2017-07-05T22:42:13.788Z,17.20
2017-07-05T22:44:42.307Z,17.10
2017-07-05T22:47:11.406Z,17.00
2017-07-05T22:49:42.556Z,16.90
2017-07-05T22:52:11.921Z,16.90
2017-07-05T22:54:40.419Z,17.00
2017-07-05T22:57:08.903Z,17.00
2017-07-05T22:59:37.328Z,17.10
2017-07-05T23:02:05.758Z,17.20
2017-07-05T23:04:34.293Z,17.30
2017-07-05T23:07:03.526Z,17.30
2017-07-05T23:09:31.991Z,17.20
2017-07-05T23:12:00.471Z,17.30
2017-07-05T23:14:28.884Z,17.30
2017-07-05T23:16:57.368Z,17.40
2017-07-05T23:19:25.829Z,17.30
2017-07-05T23:21:54.266Z,17.40
2017-07-05T23:24:22.683Z,17.60
2017-07-05T23:26:51.166Z,18.00
2017-07-05T23:29:19.595Z,18.30
2017-07-05T23:31:48.021Z,18.60
2017-07-05T23:34:16.503Z,18.70
2017-07-05T23:36:44.963Z,18.60
2017-07-05T23:39:13.395Z,18.70
2017-07-05T23:41:41.868Z,18.60
2017-07-05T23:44:10.293Z,18.40
2017-07-05T23:46:38.719Z,18.30
2017-07-05T23:49:07.262Z,18.20
2017-07-05T23:51:35.699Z,18.20
2017-07-05T23:54:04.115Z,18.30
2017-07-05T23:56:32.579Z,18.30
2017-07-05T23:59:01.042Z,18.20
